Time;durP1;ratioP1;P1;durP2;ratioP2;P2;SDS_P1;SDS_P2;PMS_P1;PMS_P2;Temp;Humidity;BMP_temperature;BMP_pressure;BME280_temperature;BME280_humidity;BME280_pressure;Samples;Min_cycle;Max_cycle;Signal;HPM_P1;HPM_P2
2023/12/25 00:02:07;;;;;;;6.72;3.15;;;11.70;99.90;;;;;;5094171;28;20557;-78
2023/12/25 00:04:38;;;;;;;13.27;8.13;;;11.70;99.90;;;;;;5083304;28;20256;-86
2023/12/25 00:07:07;;;;;;;6.70;4.03;;;11.70;99.90;;;;;;5093979;28;20249;-78
2023/12/25 00:09:34;;;;;;;5.93;3.85;;;11.60;99.90;;;;;;5092596;28;20292;-79
2023/12/25 00:12:01;;;;;;;2.55;1.83;;;11.70;99.90;;;;;;5093093;28;20235;-87
2023/12/25 00:14:28;;;;;;;2.65;1.40;;;11.70;99.90;;;;;;5093525;28;20215;-87
2023/12/25 00:16:57;;;;;;;4.28;1.80;;;11.60;99.90;;;;;;5093326;28;20226;-86
2023/12/25 00:19:24;;;;;;;2.75;1.25;;;11.60;99.90;;;;;;5093762;28;20226;-86
2023/12/25 00:21:51;;;;;;;2.08;1.63;;;11.60;99.90;;;;;;5092820;28;20215;-86
2023/12/25 00:24:18;;;;;;;3.40;2.25;;;11.60;99.90;;;;;;5093379;28;20220;-86
2023/12/25 00:26:45;;;;;;;3.83;2.63;;;11.60;99.90;;;;;;5092768;28;20954;-78
2023/12/25 00:29:13;;;;;;;5.55;3.13;;;11.60;99.90;;;;;;5093173;28;20554;-78
2023/12/25 00:31:40;;;;;;;7.28;3.75;;;11.60;99.90;;;;;;5092700;28;20591;-78
2023/12/25 00:34:08;;;;;;;5.90;2.45;;;11.70;99.90;;;;;;5093422;28;20611;-86
2023/12/25 00:36:35;;;;;;;2.90;1.60;;;11.60;99.90;;;;;;5093731;28;20301;-86
2023/12/25 00:39:05;;;;;;;2.95;2.22;;;11.60;99.90;;;;;;5081966;28;20223;-78
2023/12/25 00:41:32;;;;;;;4.15;1.85;;;11.60;99.90;;;;;;5092260;28;20230;-78
2023/12/25 00:43:59;;;;;;;1.90;1.70;;;11.60;99.90;;;;;;5094185;28;20223;-78
2023/12/25 00:46:28;;;;;;;1.90;1.50;;;11.60;99.90;;;;;;5097067;28;20305;-86
2023/12/25 00:48:55;;;;;;;4.53;2.20;;;11.50;99.90;;;;;;5096780;28;20565;-86
2023/12/25 00:51:25;;;;;;;3.00;2.72;;;11.50;99.90;;;;;;5096851;28;20227;-77
2023/12/25 00:53:52;;;;;;;2.45;1.65;;;11.60;99.90;;;;;;5095838;28;20235;-86
2023/12/25 00:56:19;;;;;;;8.75;2.67;;;11.60;99.90;;;;;;5097059;28;20219;-87
2023/12/25 00:58:46;;;;;;;7.43;3.80;;;11.60;99.90;;;;;;5096669;28;20621;-86
2023/12/25 01:01:13;;;;;;;2.55;1.63;;;11.70;99.90;;;;;;5096906;28;20242;-78
2023/12/25 01:03:39;;;;;;;4.60;3.35;;;11.60;99.90;;;;;;5096533;28;20223;-78
2023/12/25 01:06:06;;;;;;;4.45;1.55;;;11.70;99.90;;;;;;5096208;28;20229;-78
2023/12/25 01:08:35;;;;;;;2.65;1.63;;;11.70;99.90;;;;;;5085950;28;20224;-87
2023/12/25 01:11:07;;;;;;;6.18;2.20;;;11.70;99.90;;;;;;5063617;28;20228;-86
2023/12/25 01:13:34;;;;;;;7.03;4.78;;;11.70;99.90;;;;;;5079357;28;20602;-78
2023/12/25 01:16:01;;;;;;;3.65;2.47;;;11.70;99.90;;;;;;5077839;28;20224;-78
2023/12/25 01:18:28;;;;;;;2.83;2.22;;;11.70;99.90;;;;;;5076128;28;20678;-86
2023/12/25 01:20:55;;;;;;;3.63;3.15;;;11.70;99.90;;;;;;5075855;28;20228;-78
2023/12/25 01:23:25;;;;;;;2.60;1.80;;;11.70;99.90;;;;;;5074513;28;20232;-78
2023/12/25 01:25:55;;;;;;;4.00;2.00;;;11.80;99.90;;;;;;5076429;28;20228;-86
2023/12/25 01:28:22;;;;;;;3.38;1.90;;;11.80;99.90;;;;;;5076210;28;20223;-78
2023/12/25 01:30:54;;;;;;;4.93;1.83;;;11.80;99.90;;;;;;5076208;28;20224;-78
2023/12/25 01:33:21;;;;;;;4.93;1.63;;;11.80;99.90;;;;;;5065691;28;20219;-78
2023/12/25 01:35:48;;;;;;;4.05;2.33;;;11.80;99.90;;;;;;5057324;28;20293;-86
2023/12/25 01:38:15;;;;;;;2.85;2.10;;;11.80;99.90;;;;;;5066047;28;20224;-86
2023/12/25 01:40:45;;;;;;;6.55;3.78;;;11.80;99.90;;;;;;5056208;28;20232;-86
2023/12/25 01:43:13;;;;;;;7.28;4.80;;;11.80;99.90;;;;;;5072213;28;20242;-86
2023/12/25 01:45:43;;;;;;;3.05;2.42;;;11.80;99.90;;;;;;5083191;28;20310;-78
2023/12/25 01:48:11;;;;;;;6.00;4.13;;;11.80;99.90;;;;;;5075642;28;20315;-85
2023/12/25 01:50:41;;;;;;;5.18;4.43;;;11.80;99.90;;;;;;5076148;28;20224;-78
2023/12/25 01:53:08;;;;;;;5.70;4.00;;;11.90;99.90;;;;;;5076237;28;20285;-86
2023/12/25 01:55:37;;;;;;;3.20;2.90;;;11.90;99.90;;;;;;5074522;28;20313;-86
2023/12/25 01:58:04;;;;;;;2.70;2.33;;;11.90;99.90;;;;;;5078116;28;20224;-86
2023/12/25 02:00:32;;;;;;;16.33;8.27;;;11.90;99.90;;;;;;5076112;28;21446;-86
2023/12/25 02:03:00;;;;;;;5.65;4.68;;;11.90;99.90;;;;;;5076850;28;20285;-79
2023/12/25 02:05:28;;;;;;;6.53;3.88;;;11.80;99.90;;;;;;5075726;28;20228;-86
2023/12/25 02:07:55;;;;;;;2.70;2.50;;;11.80;99.90;;;;;;5070920;28;20228;-85
2023/12/25 02:10:29;;;;;;;7.78;4.95;;;11.80;99.90;;;;;;5055167;28;20307;-85
2023/12/25 02:12:57;;;;;;;8.57;3.40;;;11.90;99.90;;;;;;5073388;28;20249;-78
2023/12/25 02:15:26;;;;;;;4.07;2.70;;;11.90;99.90;;;;;;5094987;28;20578;-85
2023/12/25 02:17:55;;;;;;;5.90;5.15;;;11.90;99.90;;;;;;5095890;28;20266;-78
2023/12/25 02:20:23;;;;;;;3.67;3.28;;;11.90;99.90;;;;;;5095039;28;20238;-78
2023/12/25 02:22:51;;;;;;;6.80;3.55;;;11.90;99.90;;;;;;5094939;28;20591;-86
2023/12/25 02:25:28;;;;;;;3.50;2.80;;;11.90;99.90;;;;;;5095039;28;20287;-85
2023/12/25 02:27:57;;;;;;;3.90;1.85;;;12.00;99.90;;;;;;5096384;28;20219;-82
2023/12/25 02:30:24;;;;;;;8.27;5.03;;;12.00;99.90;;;;;;5096221;28;20223;-85
2023/12/25 02:32:52;;;;;;;11.05;7.13;;;12.00;99.90;;;;;;5101318;28;20227;-85
2023/12/25 02:35:19;;;;;;;2.72;1.92;;;12.00;99.90;;;;;;5111115;28;20279;-78
2023/12/25 02:37:46;;;;;;;5.20;2.85;;;12.00;99.90;;;;;;5110652;28;20230;-86
2023/12/25 02:40:13;;;;;;;3.05;2.00;;;12.00;99.90;;;;;;5105511;28;20284;-79
2023/12/25 02:42:40;;;;;;;9.90;4.43;;;12.00;99.90;;;;;;5095463;28;20223;-85
2023/12/25 02:45:09;;;;;;;1.50;1.40;;;12.00;99.90;;;;;;5097896;28;20311;-86
2023/12/25 02:47:36;;;;;;;4.43;2.75;;;12.10;99.90;;;;;;5094846;28;20234;-78
2023/12/25 02:50:06;;;;;;;2.78;2.13;;;12.10;99.90;;;;;;5095150;28;20340;-86
2023/12/25 02:52:34;;;;;;;6.60;2.20;;;12.10;99.90;;;;;;5095056;28;20272;-78
2023/12/25 02:55:01;;;;;;;4.40;1.52;;;12.10;99.90;;;;;;5074786;28;20258;-78
2023/12/25 02:57:29;;;;;;;4.45;2.40;;;12.10;99.90;;;;;;5092977;28;20223;-85
2023/12/25 02:59:56;;;;;;;2.75;2.00;;;12.10;99.90;;;;;;5094891;28;20297;-85
2023/12/25 03:02:24;;;;;;;16.08;10.27;;;12.10;99.90;;;;;;5093836;28;20685;-79
2023/12/25 03:04:51;;;;;;;4.88;2.72;;;12.00;99.90;;;;;;5094976;28;20700;-85
2023/12/25 03:07:18;;;;;;;3.10;1.70;;;12.10;99.90;;;;;;5077383;28;20581;-78
2023/12/25 03:09:45;;;;;;;1.88;1.50;;;12.10;99.90;;;;;;5073062;28;20223;-78
2023/12/25 03:12:14;;;;;;;3.92;2.75;;;12.00;99.90;;;;;;5076390;28;20224;-86
2023/12/25 03:14:41;;;;;;;4.88;1.70;;;12.00;99.90;;;;;;5093953;28;20226;-78
2023/12/25 03:17:09;;;;;;;8.35;2.38;;;12.00;99.90;;;;;;5094229;28;20223;-78
2023/12/25 03:19:37;;;;;;;6.13;2.90;;;12.00;99.90;;;;;;5085132;28;20255;-78
2023/12/25 03:22:05;;;;;;;5.07;2.70;;;12.10;99.90;;;;;;5094379;28;20219;-78
2023/12/25 03:24:32;;;;;;;2.88;2.20;;;12.00;99.90;;;;;;5093621;28;20227;-85
2023/12/25 03:26:59;;;;;;;5.93;3.20;;;12.00;99.90;;;;;;5094069;28;20215;-78
2023/12/25 03:29:26;;;;;;;5.80;3.30;;;12.00;99.90;;;;;;5093931;28;20297;-78
2023/12/25 03:31:53;;;;;;;7.35;4.78;;;12.00;99.90;;;;;;5093449;28;20215;-78
2023/12/25 03:34:20;;;;;;;3.47;2.25;;;12.00;99.90;;;;;;5093797;28;20219;-86
2023/12/25 03:36:49;;;;;;;5.10;2.17;;;12.00;99.90;;;;;;5093968;28;20318;-86
2023/12/25 03:39:16;;;;;;;5.45;2.22;;;12.00;99.90;;;;;;5094035;28;20230;-86
2023/12/25 03:41:45;;;;;;;7.20;4.10;;;12.00;99.90;;;;;;5093560;28;20219;-78
2023/12/25 03:44:12;;;;;;;4.10;2.90;;;12.00;99.90;;;;;;5093770;28;20219;-78
2023/12/25 03:46:39;;;;;;;8.15;2.53;;;12.00;99.90;;;;;;5082351;28;20230;-78
2023/12/25 03:49:06;;;;;;;5.25;3.45;;;12.00;99.90;;;;;;5093724;28;20226;-78
2023/12/25 03:51:36;;;;;;;1.77;1.20;;;11.90;99.90;;;;;;5093219;28;20226;-86
2023/12/25 03:54:04;;;;;;;4.70;1.75;;;11.90;99.90;;;;;;5073864;28;20231;-86
2023/12/25 03:56:31;;;;;;;4.25;2.63;;;11.90;99.90;;;;;;5073615;28;20224;-85
2023/12/25 03:58:58;;;;;;;4.82;2.28;;;11.80;99.90;;;;;;5072807;28;20234;-78
2023/12/25 04:01:25;;;;;;;11.10;5.55;;;11.80;99.90;;;;;;5081158;28;20219;-86
2023/12/25 04:03:52;;;;;;;8.35;2.97;;;11.80;99.90;;;;;;5093598;28;20227;-78
2023/12/25 04:06:28;;;;;;;5.85;3.08;;;11.80;99.90;;;;;;5093176;28;20215;-86
2023/12/25 04:08:55;;;;;;;3.55;1.75;;;11.80;99.90;;;;;;5093285;28;20226;-77
2023/12/25 04:11:24;;;;;;;2.10;1.90;;;11.80;99.90;;;;;;5094222;28;20219;-78
2023/12/25 04:13:53;;;;;;;2.60;1.98;;;11.80;99.90;;;;;;5092563;28;20239;-78
2023/12/25 04:16:21;;;;;;;4.15;2.70;;;11.80;99.90;;;;;;5093349;28;20246;-78
2023/12/25 04:18:49;;;;;;;6.53;3.72;;;11.80;99.90;;;;;;5093934;28;20284;-85
2023/12/25 04:21:23;;;;;;;3.28;2.10;;;11.80;99.90;;;;;;5096721;28;20227;-78
2023/12/25 04:23:50;;;;;;;3.97;2.17;;;11.80;99.90;;;;;;5096198;28;20682;-85
2023/12/25 04:26:17;;;;;;;7.20;2.45;;;11.80;99.90;;;;;;5096701;28;20315;-86
2023/12/25 04:28:45;;;;;;;3.60;2.30;;;11.80;99.90;;;;;;5096404;28;20240;-86
2023/12/25 04:31:15;;;;;;;2.10;1.50;;;11.80;99.90;;;;;;5096833;28;20223;-86
2023/12/25 04:33:43;;;;;;;2.17;1.98;;;11.80;99.90;;;;;;5095461;28;20226;-79
2023/12/25 04:36:10;;;;;;;2.25;1.90;;;11.80;99.90;;;;;;5095581;28;20215;-86
2023/12/25 04:38:38;;;;;;;3.22;2.20;;;11.80;99.90;;;;;;5094910;28;20227;-80
2023/12/25 04:41:05;;;;;;;2.72;1.80;;;11.80;99.90;;;;;;5095679;28;20695;-86
2023/12/25 04:43:32;;;;;;;4.07;2.10;;;11.80;99.90;;;;;;5094922;28;20709;-78
2023/12/25 04:46:02;;;;;;;5.65;3.03;;;11.90;99.90;;;;;;5094541;28;20238;-78
2023/12/25 04:48:29;;;;;;;3.35;2.78;;;11.90;99.90;;;;;;5096560;28;20688;-78
2023/12/25 04:50:57;;;;;;;3.75;1.63;;;11.90;99.90;;;;;;5096511;28;20246;-78
2023/12/25 04:53:24;;;;;;;8.30;4.53;;;11.90;99.90;;;;;;5097091;28;20647;-78
2023/12/25 04:55:51;;;;;;;4.05;2.00;;;11.90;99.90;;;;;;5096171;28;20230;-78
2023/12/25 04:58:19;;;;;;;9.32;3.78;;;11.90;99.90;;;;;;5096910;28;20669;-78
2023/12/25 05:00:46;;;;;;;4.00;2.58;;;12.00;99.90;;;;;;5096005;28;20245;-78
2023/12/25 05:03:14;;;;;;;8.18;4.55;;;12.00;99.90;;;;;;5097586;28;20227;-78
2023/12/25 05:05:41;;;;;;;3.30;2.00;;;12.00;99.90;;;;;;5096456;28;20243;-78
2023/12/25 05:08:07;;;;;;;6.22;2.30;;;12.00;99.90;;;;;;5096795;28;20242;-84
2023/12/25 05:10:34;;;;;;;5.97;4.20;;;12.00;99.90;;;;;;5096827;28;20219;-85
2023/12/25 05:13:01;;;;;;;3.65;2.28;;;12.00;99.90;;;;;;5095894;28;20462;-85
2023/12/25 05:15:28;;;;;;;2.22;2.00;;;12.00;99.90;;;;;;5096968;28;20223;-78
2023/12/25 05:17:55;;;;;;;1.73;1.48;;;12.00;99.90;;;;;;5096339;28;20223;-77
2023/12/25 05:20:24;;;;;;;4.50;2.00;;;12.00;99.90;;;;;;5096352;28;20223;-84
2023/12/25 05:22:51;;;;;;;4.15;1.70;;;12.10;99.90;;;;;;5095933;28;20227;-84
2023/12/25 05:25:18;;;;;;;5.07;2.60;;;12.10;99.90;;;;;;5096802;28;20692;-78
2023/12/25 05:27:46;;;;;;;8.23;5.85;;;12.10;99.90;;;;;;5095532;28;20223;-78
2023/12/25 05:30:13;;;;;;;3.85;2.00;;;12.10;99.90;;;;;;5094444;28;20219;-77
2023/12/25 05:32:40;;;;;;;3.30;1.92;;;12.10;99.90;;;;;;5096085;28;20231;-85
2023/12/25 05:35:08;;;;;;;9.65;6.70;;;12.20;99.90;;;;;;5095515;28;20311;-85
2023/12/25 05:37:36;;;;;;;9.85;2.28;;;12.20;99.90;;;;;;5095958;28;20223;-77
2023/12/25 05:40:04;;;;;;;4.10;2.50;;;12.20;99.90;;;;;;5095258;28;20285;-85
2023/12/25 05:42:31;;;;;;;8.90;4.75;;;12.20;99.90;;;;;;5095920;28;20270;-85
2023/12/25 05:44:58;;;;;;;6.60;4.85;;;12.20;99.90;;;;;;5095330;28;20219;-77
2023/12/25 05:47:25;;;;;;;6.25;3.15;;;12.20;99.90;;;;;;5095729;28;20691;-78
2023/12/25 05:49:54;;;;;;;2.97;1.50;;;12.20;99.90;;;;;;5095192;28;20219;-84
2023/12/25 05:52:21;;;;;;;3.13;2.67;;;12.30;99.90;;;;;;5096354;28;20288;-78
2023/12/25 05:54:49;;;;;;;3.72;2.40;;;12.30;99.90;;;;;;5095376;28;20553;-78
2023/12/25 05:57:16;;;;;;;3.20;2.80;;;12.20;99.90;;;;;;5095125;28;20223;-84
2023/12/25 05:59:43;;;;;;;12.00;8.20;;;12.30;99.90;;;;;;5095940;28;20227;-78
2023/12/25 06:02:17;;;;;;;4.03;2.50;;;12.30;99.90;;;;;;5094878;28;20226;-78
2023/12/25 06:04:44;;;;;;;5.40;3.55;;;12.30;99.90;;;;;;5095733;28;20227;-78
2023/12/25 06:07:11;;;;;;;4.47;2.40;;;12.30;99.90;;;;;;5095187;28;20664;-78
2023/12/25 06:09:38;;;;;;;2.55;1.60;;;12.30;99.90;;;;;;5095349;28;20748;-78
2023/12/25 06:12:07;;;;;;;4.95;3.20;;;12.30;99.90;;;;;;5094974;28;20285;-85
2023/12/25 06:14:36;;;;;;;2.90;2.15;;;12.20;99.90;;;;;;5095629;28;20234;-85
2023/12/25 06:17:04;;;;;;;6.90;4.00;;;12.20;99.90;;;;;;5095057;28;20565;-78
2023/12/25 06:19:31;;;;;;;7.95;3.42;;;12.30;99.90;;;;;;5095353;28;20297;-87
2023/12/25 06:21:58;;;;;;;3.05;1.73;;;12.20;99.90;;;;;;5095119;28;20228;-86
2023/12/25 06:24:25;;;;;;;11.55;7.88;;;12.20;99.90;;;;;;5095429;28;20580;-86
2023/12/25 06:26:51;;;;;;;3.38;2.70;;;12.30;99.90;;;;;;5094981;28;20231;-85
2023/12/25 06:29:20;;;;;;;7.88;4.50;;;12.30;99.90;;;;;;5095231;28;20219;-78
2023/12/25 06:31:47;;;;;;;9.88;5.65;;;12.30;99.90;;;;;;5095227;28;20230;-79
2023/12/25 06:34:15;;;;;;;4.13;2.70;;;12.30;99.90;;;;;;5094102;28;20309;-79
2023/12/25 06:36:42;;;;;;;3.70;2.63;;;12.30;99.90;;;;;;5094853;28;20281;-78
2023/12/25 06:39:09;;;;;;;2.55;1.40;;;12.20;99.90;;;;;;5094162;28;20223;-85
2023/12/25 06:41:36;;;;;;;5.43;3.58;;;12.30;99.90;;;;;;5094627;28;20224;-79
2023/12/25 06:44:07;;;;;;;4.90;2.20;;;12.30;99.90;;;;;;5094174;28;20285;-79
2023/12/25 06:46:36;;;;;;;3.93;2.40;;;12.30;99.90;;;;;;5094843;28;20327;-86
2023/12/25 06:49:03;;;;;;;7.63;2.70;;;12.30;99.90;;;;;;5094168;28;20466;-86
2023/12/25 06:51:30;;;;;;;5.93;3.17;;;12.30;99.90;;;;;;5094746;28;20223;-77
2023/12/25 06:53:57;;;;;;;3.08;2.20;;;12.30;99.90;;;;;;5094366;28;20607;-84
2023/12/25 06:56:27;;;;;;;3.33;2.20;;;12.30;99.90;;;;;;5094500;28;20223;-78
2023/12/25 06:58:54;;;;;;;5.85;3.70;;;12.30;99.90;;;;;;5094660;28;20223;-77
2023/12/25 07:01:25;;;;;;;6.07;4.60;;;12.30;99.90;;;;;;5094401;28;20652;-78
2023/12/25 07:03:53;;;;;;;2.80;2.30;;;12.40;99.90;;;;;;5094558;28;20712;-78
2023/12/25 07:06:20;;;;;;;8.60;5.15;;;12.40;99.90;;;;;;5094299;28;20231;-85
2023/12/25 07:08:47;;;;;;;6.07;2.05;;;12.40;99.90;;;;;;5094880;28;20256;-85
2023/12/25 07:11:14;;;;;;;8.23;2.47;;;12.30;99.90;;;;;;5094168;28;20241;-78
2023/12/25 07:13:42;;;;;;;2.85;1.70;;;12.40;99.90;;;;;;5094403;28;20227;-77
2023/12/25 07:16:09;;;;;;;3.17;1.70;;;12.40;99.90;;;;;;5094329;28;20219;-85
2023/12/25 07:18:36;;;;;;;7.35;2.80;;;12.30;99.90;;;;;;5095394;28;20477;-78
2023/12/25 07:21:05;;;;;;;2.50;1.52;;;12.40;99.90;;;;;;5093975;28;20219;-86
2023/12/25 07:23:32;;;;;;;4.43;3.05;;;12.40;99.90;;;;;;5098404;28;20227;-85
2023/12/25 07:25:59;;;;;;;4.30;2.42;;;12.40;99.90;;;;;;5098655;28;20235;-85
2023/12/25 07:28:27;;;;;;;3.33;2.13;;;12.40;99.90;;;;;;5094922;28;20227;-78
2023/12/25 07:30:54;;;;;;;10.27;4.78;;;12.30;99.90;;;;;;5099157;28;20288;-85
2023/12/25 07:33:21;;;;;;;4.32;2.30;;;12.30;99.90;;;;;;5098509;28;20219;-85
2023/12/25 07:35:48;;;;;;;4.72;3.45;;;12.40;99.90;;;;;;5098263;28;20223;-78
2023/12/25 07:38:20;;;;;;;6.65;3.83;;;12.40;99.90;;;;;;5083778;28;20677;-78
2023/12/25 07:40:48;;;;;;;9.20;4.00;;;12.40;99.90;;;;;;5094947;28;20684;-84
2023/12/25 07:43:15;;;;;;;4.03;3.10;;;12.40;99.90;;;;;;5094490;28;20249;-85
2023/12/25 07:45:43;;;;;;;6.97;2.73;;;12.40;99.90;;;;;;5095123;28;20230;-85
2023/12/25 07:48:10;;;;;;;6.00;2.17;;;12.40;99.90;;;;;;5093923;28;20476;-85
2023/12/25 07:50:37;;;;;;;3.55;2.10;;;12.40;99.90;;;;;;5094788;28;20257;-78
2023/12/25 07:53:04;;;;;;;4.78;2.15;;;12.40;99.90;;;;;;5092840;28;20465;-85
2023/12/25 07:55:35;;;;;;;4.35;2.15;;;12.40;99.90;;;;;;5093754;28;20215;-78
2023/12/25 07:58:02;;;;;;;4.03;3.22;;;12.40;99.90;;;;;;5093380;28;20223;-79
2023/12/25 08:00:29;;;;;;;4.28;2.28;;;12.30;99.90;;;;;;5093773;28;20363;-79
2023/12/25 08:02:56;;;;;;;4.10;3.13;;;12.30;99.90;;;;;;5093183;28;20231;-79
2023/12/25 08:05:23;;;;;;;6.95;3.67;;;12.30;99.90;;;;;;5093586;28;20231;-85
2023/12/25 08:07:52;;;;;;;4.00;2.28;;;12.30;99.90;;;;;;5093196;28;20219;-84
2023/12/25 08:10:19;;;;;;;8.85;2.53;;;12.30;99.90;;;;;;5093822;28;20225;-85
2023/12/25 08:12:47;;;;;;;2.85;2.30;;;12.30;99.90;;;;;;5093352;28;20318;-78
2023/12/25 08:15:16;;;;;;;2.25;1.90;;;12.30;99.90;;;;;;5093202;28;20215;-85
2023/12/25 08:17:44;;;;;;;3.88;2.08;;;12.30;99.90;;;;;;5093649;28;20234;-85
2023/12/25 08:20:11;;;;;;;5.55;2.65;;;12.30;99.90;;;;;;5093181;28;20227;-79
2023/12/25 08:22:38;;;;;;;3.28;2.33;;;12.30;99.90;;;;;;5093350;28;20747;-78
2023/12/25 08:25:06;;;;;;;3.65;2.05;;;12.20;99.90;;;;;;5092512;28;20237;-79
2023/12/25 08:27:33;;;;;;;3.30;1.98;;;12.10;99.90;;;;;;5093490;28;20227;-85
2023/12/25 08:30:03;;;;;;;6.00;1.50;;;12.20;99.90;;;;;;5092919;28;20688;-85
2023/12/25 08:32:30;;;;;;;3.70;1.42;;;12.20;99.90;;;;;;5093648;28;20254;-85
2023/12/25 08:34:57;;;;;;;3.83;1.52;;;12.20;99.90;;;;;;5082952;28;20223;-85
2023/12/25 08:37:24;;;;;;;2.95;1.70;;;12.20;99.90;;;;;;5093272;28;20657;-85
2023/12/25 08:39:50;;;;;;;4.57;1.83;;;12.20;99.90;;;;;;5093537;28;20239;-85
2023/12/25 08:42:17;;;;;;;10.73;3.30;;;12.20;99.90;;;;;;5092511;28;20289;-85
2023/12/25 08:44:45;;;;;;;4.43;3.75;;;12.10;99.90;;;;;;5093521;28;20480;-85
2023/12/25 08:47:22;;;;;;;3.10;1.85;;;12.10;99.90;;;;;;5092371;28;20231;-85
2023/12/25 08:49:49;;;;;;;3.78;1.67;;;12.20;99.90;;;;;;5093053;28;20276;-85
2023/12/25 08:52:24;;;;;;;5.97;1.92;;;12.20;99.90;;;;;;5092709;28;20337;-85
2023/12/25 08:55:33;;;;;;;5.65;3.22;;;12.10;99.90;;;;;;5093560;28;20649;-85
2023/12/25 08:58:00;;;;;;;4.78;2.50;;;12.10;99.90;;;;;;5057429;28;20227;-85
2023/12/25 09:00:27;;;;;;;9.18;3.90;;;12.10;99.90;;;;;;5093528;28;20223;-78
2023/12/25 09:02:55;;;;;;;6.30;2.50;;;12.10;99.90;;;;;;5092527;28;20246;-78
2023/12/25 09:05:22;;;;;;;4.65;1.80;;;12.10;99.90;;;;;;5094821;28;20284;-79
2023/12/25 09:08:30;;;;;;;6.28;1.80;;;12.10;99.90;;;;;;5095615;28;20231;-78
2023/12/25 09:10:57;;;;;;;5.53;1.58;;;12.20;99.90;;;;;;5094875;28;20227;-78
2023/12/25 09:13:24;;;;;;;6.38;3.42;;;12.10;99.90;;;;;;5096204;28;20327;-78
2023/12/25 09:15:54;;;;;;;2.70;2.20;;;12.10;99.90;;;;;;5096344;28;20307;-78
2023/12/25 09:18:22;;;;;;;3.38;2.20;;;12.20;99.90;;;;;;5094868;28;20215;-79
2023/12/25 09:20:49;;;;;;;2.78;1.70;;;12.10;99.90;;;;;;5095218;28;20280;-79
2023/12/25 09:23:17;;;;;;;3.67;1.92;;;12.10;99.90;;;;;;5096254;28;20704;-78
2023/12/25 09:25:47;;;;;;;5.15;2.53;;;12.10;99.90;;;;;;5095724;28;20310;-77
2023/12/25 09:28:14;;;;;;;4.40;3.10;;;12.10;99.90;;;;;;5096273;28;20657;-77
2023/12/25 09:30:41;;;;;;;5.30;2.45;;;12.10;99.90;;;;;;5096106;28;20226;-77
2023/12/25 09:33:08;;;;;;;7.85;3.95;;;12.00;99.90;;;;;;5095916;28;20242;-84
2023/12/25 09:35:36;;;;;;;4.75;2.55;;;12.10;99.90;;;;;;5096830;28;20747;-84
2023/12/25 09:38:03;;;;;;;4.73;3.30;;;12.10;99.90;;;;;;5096731;28;20306;-84
2023/12/25 09:40:32;;;;;;;5.57;2.30;;;12.10;99.90;;;;;;5096808;28;20473;-85
2023/12/25 09:43:02;;;;;;;5.18;2.67;;;12.10;99.90;;;;;;5086729;28;20715;-84
2023/12/25 09:45:34;;;;;;;7.40;3.25;;;12.10;99.90;;;;;;5095382;28;20243;-77
2023/12/25 09:48:04;;;;;;;8.02;2.00;;;12.10;99.90;;;;;;5093775;28;20231;-77
2023/12/25 09:50:32;;;;;;;4.57;2.38;;;12.10;99.90;;;;;;5096043;28;20222;-77
2023/12/25 09:53:02;;;;;;;5.95;2.97;;;12.10;99.90;;;;;;5095631;28;20234;-78
2023/12/25 09:55:29;;;;;;;4.13;2.38;;;12.10;99.90;;;;;;5095531;28;20688;-77
2023/12/25 09:58:00;;;;;;;3.63;1.60;;;12.10;99.90;;;;;;5095600;28;20251;-84
2023/12/25 10:00:27;;;;;;;5.63;2.53;;;12.20;99.90;;;;;;5096271;28;20234;-78
2023/12/25 10:02:56;;;;;;;9.65;2.03;;;12.20;99.90;;;;;;5095191;28;20573;-78
2023/12/25 10:05:24;;;;;;;7.90;2.00;;;12.10;99.90;;;;;;5095513;28;20251;-78
2023/12/25 10:07:51;;;;;;;3.80;1.55;;;12.20;99.90;;;;;;5094879;28;20281;-78
2023/12/25 10:10:19;;;;;;;4.85;2.60;;;12.10;99.90;;;;;;5093783;28;20223;-78
2023/12/25 10:12:46;;;;;;;3.35;1.85;;;12.10;99.90;;;;;;5095602;28;20231;-85
2023/12/25 10:15:22;;;;;;;2.70;2.47;;;12.20;99.90;;;;;;5086244;28;20223;-84
2023/12/25 10:17:49;;;;;;;5.28;2.05;;;12.10;99.90;;;;;;5094759;28;20219;-84
2023/12/25 10:20:20;;;;;;;6.05;2.58;;;12.10;99.90;;;;;;5095578;28;20302;-85
2023/12/25 10:22:48;;;;;;;2.65;1.95;;;12.10;99.90;;;;;;5095753;28;20305;-85
2023/12/25 10:25:16;;;;;;;3.15;1.35;;;12.10;99.90;;;;;;5095513;28;20262;-85
2023/12/25 10:27:45;;;;;;;3.22;2.70;;;12.20;99.90;;;;;;5095046;28;20231;-79
2023/12/25 10:30:20;;;;;;;3.92;2.22;;;12.20;99.90;;;;;;5094845;28;20254;-79
2023/12/25 10:32:47;;;;;;;5.03;2.50;;;12.20;99.90;;;;;;5094967;28;20239;-79
2023/12/25 10:35:15;;;;;;;8.32;3.35;;;12.20;99.90;;;;;;5094441;28;20325;-85
2023/12/25 10:38:01;;;;;;;;;;;;;;;;;;;;;
2023/12/25 10:40:31;;;;;;;2.38;1.73;;;12.30;99.90;;;;;;5080864;28;20507;-85
2023/12/25 10:43:02;;;;;;;5.75;3.72;;;12.30;99.90;;;;;;5094947;28;20227;-85
2023/12/25 10:45:31;;;;;;;5.68;3.10;;;12.30;99.90;;;;;;5094846;28;20227;-78
2023/12/25 10:48:02;;;;;;;8.27;2.97;;;12.20;99.90;;;;;;5094255;28;20327;-77
2023/12/25 10:50:34;;;;;;;4.15;3.35;;;12.20;99.90;;;;;;5094955;28;20581;-78
2023/12/25 10:53:03;;;;;;;3.67;2.80;;;12.20;99.90;;;;;;5094703;28;20219;-85
2023/12/25 10:55:42;;;;;;;7.35;3.70;;;12.20;99.90;;;;;;5094237;28;20668;-78
2023/12/25 10:58:13;;;;;;;6.45;2.80;;;12.20;99.90;;;;;;5094015;28;20215;-85
2023/12/25 11:00:44;;;;;;;5.18;3.15;;;12.20;99.90;;;;;;5094719;28;20227;-78
2023/12/25 11:03:13;;;;;;;6.15;2.15;;;12.20;99.90;;;;;;5094463;28;20219;-85
2023/12/25 11:05:41;;;;;;;3.80;1.90;;;12.20;99.90;;;;;;5094743;28;20227;-78
2023/12/25 11:08:08;;;;;;;2.15;1.63;;;12.30;99.90;;;;;;5093648;28;20726;-85
2023/12/25 11:10:36;;;;;;;5.57;2.90;;;12.30;99.90;;;;;;5094773;28;20232;-85
2023/12/25 11:13:04;;;;;;;5.25;1.95;;;12.30;99.90;;;;;;5094265;28;20299;-78
2023/12/25 11:15:33;;;;;;;4.15;1.95;;;12.30;99.90;;;;;;5094688;28;20219;-85
2023/12/25 11:18:01;;;;;;;4.70;2.85;;;12.30;99.90;;;;;;5094587;28;20558;-78
2023/12/25 11:20:30;;;;;;;3.92;2.20;;;12.40;99.90;;;;;;5094281;28;20223;-86
2023/12/25 11:22:58;;;;;;;6.88;2.15;;;12.40;99.90;;;;;;5093598;28;20227;-85
2023/12/25 11:25:30;;;;;;;6.05;3.47;;;12.40;99.90;;;;;;5094301;28;20216;-85
2023/12/25 11:27:57;;;;;;;6.35;2.08;;;12.50;99.90;;;;;;5094181;28;20227;-85
2023/12/25 11:30:27;;;;;;;5.22;2.65;;;12.50;99.90;;;;;;5095381;28;20219;-78
2023/12/25 11:32:55;;;;;;;3.63;2.08;;;12.60;99.90;;;;;;5094020;28;20238;-78
2023/12/25 11:35:32;;;;;;;4.55;2.08;;;12.50;99.90;;;;;;5093795;28;20224;-78
2023/12/25 11:38:31;;;;;;;4.18;2.15;;;12.60;99.90;;;;;;5093505;28;20219;-78
2023/12/25 11:41:04;;;;;;;5.10;3.10;;;12.60;99.90;;;;;;5093959;28;20234;-77
2023/12/25 11:43:34;;;;;;;6.60;2.55;;;12.60;99.90;;;;;;5094915;28;20249;-78
2023/12/25 11:46:05;;;;;;;3.08;1.95;;;12.60;99.90;;;;;;5096531;28;20616;-78
2023/12/25 11:48:33;;;;;;;5.10;1.90;;;12.60;99.90;;;;;;5107236;28;20719;-85
2023/12/25 11:51:02;;;;;;;5.90;2.30;;;12.50;99.90;;;;;;5113237;28;20211;-84
2023/12/25 11:53:39;;;;;;;6.65;2.70;;;12.50;99.90;;;;;;5112283;28;20227;-85
2023/12/25 11:56:08;;;;;;;5.70;3.10;;;12.50;99.90;;;;;;5110482;28;20226;-85
2023/12/25 11:58:39;;;;;;;4.25;1.90;;;12.50;99.90;;;;;;5095330;28;20219;-78
2023/12/25 12:01:06;;;;;;;8.30;4.63;;;12.50;99.90;;;;;;5082639;28;20223;-78
2023/12/25 12:03:34;;;;;;;8.02;4.97;;;12.50;99.90;;;;;;5093893;28;20227;-78
2023/12/25 12:06:08;;;;;;;5.85;4.10;;;12.50;99.90;;;;;;5093300;28;20308;-77
2023/12/25 12:08:36;;;;;;;8.07;4.80;;;12.50;99.90;;;;;;5093446;28;20238;-77
2023/12/25 12:11:05;;;;;;;7.18;3.20;;;12.50;99.90;;;;;;5083133;28;20666;-77
2023/12/25 12:13:34;;;;;;;6.00;3.42;;;12.50;99.90;;;;;;5094053;28;20266;-79
2023/12/25 12:16:01;;;;;;;8.00;4.28;;;12.50;99.90;;;;;;5093788;28;20247;-86
2023/12/25 12:18:28;;;;;;;5.40;4.47;;;12.50;99.90;;;;;;5093868;28;20231;-87
2023/12/25 12:20:57;;;;;;;5.15;3.88;;;12.50;99.90;;;;;;5094279;28;20231;-85
2023/12/25 12:23:24;;;;;;;5.10;3.03;;;12.50;99.90;;;;;;5093107;28;20592;-85
2023/12/25 12:25:51;;;;;;;3.67;2.00;;;12.50;99.90;;;;;;5093865;28;20305;-85
2023/12/25 12:28:18;;;;;;;6.47;3.10;;;12.50;99.90;;;;;;5083017;28;20245;-85
2023/12/25 12:30:46;;;;;;;3.55;2.17;;;12.50;99.90;;;;;;5093187;28;20265;-85
2023/12/25 12:33:16;;;;;;;4.15;2.50;;;12.40;99.90;;;;;;5093071;28;20242;-85
2023/12/25 12:35:49;;;;;;;6.35;3.28;;;12.40;99.90;;;;;;5084746;28;20321;-79
2023/12/25 12:38:17;;;;;;;3.83;3.40;;;12.40;99.90;;;;;;5091943;28;20231;-78
2023/12/25 12:40:51;;;;;;;6.30;3.40;;;12.50;99.90;;;;;;5096730;28;20535;-85
2023/12/25 12:43:20;;;;;;;6.28;4.18;;;12.50;99.90;;;;;;5101855;28;20271;-85
2023/12/25 12:45:48;;;;;;;6.03;3.05;;;12.50;99.90;;;;;;5097238;28;20745;-78
2023/12/25 12:48:15;;;;;;;4.47;2.55;;;12.50;99.90;;;;;;5096988;28;20531;-78
2023/12/25 12:50:42;;;;;;;9.60;4.70;;;12.40;99.90;;;;;;5097340;28;20227;-78
2023/12/25 12:53:09;;;;;;;4.60;3.10;;;12.40;99.90;;;;;;5096646;28;20322;-78
2023/12/25 12:55:37;;;;;;;6.07;3.33;;;12.50;99.90;;;;;;5097301;28;20227;-78